createdAt,value
2022-12-01T00:00:18.839Z,80.07
2022-12-01T00:03:21.902Z,83.83
2022-12-01T00:06:24.608Z,77.83
2022-12-01T00:09:46.477Z,77.00
2022-12-01T00:12:49.185Z,85.83
2022-12-01T00:15:51.783Z,77.90
2022-12-01T00:18:54.794Z,80.33
2022-12-01T00:21:57.455Z,87.30
2022-12-01T00:25:01.432Z,80.67
2022-12-01T00:28:04.165Z,85.13
2022-12-01T00:31:08.169Z,83.03
2022-12-01T00:34:27.990Z,81.60
2022-12-01T00:37:30.719Z,81.30
2022-12-01T00:40:34.699Z,73.70
2022-12-01T00:43:37.336Z,77.77
2022-12-01T00:46:39.956Z,84.33
2022-12-01T00:49:43.723Z,82.80
2022-12-01T00:52:46.331Z,82.97
2022-12-01T00:55:50.301Z,79.20
2022-12-01T00:58:52.907Z,84.10
2022-12-01T01:01:55.616Z,87.93
2022-12-01T01:04:58.270Z,83.13
2022-12-01T01:08:00.936Z,81.07
2022-12-01T01:11:06.105Z,86.37
2022-12-01T01:14:09.574Z,89.43
2022-12-01T01:17:12.190Z,79.77
2022-12-01T01:20:14.981Z,83.67
2022-12-01T01:23:17.648Z,83.20
2022-12-01T01:26:23.372Z,79.97
2022-12-01T01:29:26.044Z,84.40
2022-12-01T01:32:28.673Z,80.93
2022-12-01T01:35:31.305Z,82.13
2022-12-01T01:38:34.761Z,84.73
2022-12-01T01:41:38.754Z,86.67
2022-12-01T01:44:50.020Z,92.00
2022-12-01T01:47:54.760Z,95.33
2022-12-01T01:50:57.683Z,90.43
2022-12-01T01:54:05.468Z,88.73
2022-12-01T01:57:12.943Z,83.27
2022-12-01T02:00:18.871Z,88.43
2022-12-01T02:03:23.039Z,82.80
2022-12-01T02:06:25.813Z,92.63
2022-12-01T02:09:28.441Z,85.23
2022-12-01T02:12:48.280Z,89.30
2022-12-01T02:15:59.615Z,87.37
2022-12-01T02:19:17.176Z,90.83
2022-12-01T02:22:30.641Z,91.90
2022-12-01T02:25:46.720Z,92.40
2022-12-01T02:29:28.353Z,86.87
2022-12-01T02:32:44.203Z,90.97
2022-12-01T02:35:53.440Z,92.13
2022-12-01T02:39:03.324Z,94.43
2022-12-01T02:42:32.513Z,97.77
2022-12-01T02:45:40.967Z,96.57
2022-12-01T02:48:50.237Z,88.53
2022-12-01T02:51:55.527Z,94.23
2022-12-01T02:54:58.415Z,90.87
2022-12-01T02:58:01.041Z,88.77
2022-12-01T03:01:18.005Z,97.87
2022-12-01T03:04:46.931Z,93.73
2022-12-01T03:08:02.351Z,89.33
2022-12-01T03:11:05.077Z,96.33
2022-12-01T03:14:19.136Z,95.90
2022-12-01T03:17:28.823Z,99.07
2022-12-01T03:20:38.111Z,94.80
2022-12-01T03:23:44.606Z,88.63
2022-12-01T03:26:51.753Z,102.97
2022-12-01T03:29:57.476Z,99.53
2022-12-01T03:33:04.704Z,97.43
2022-12-01T03:36:14.995Z,101.37
2022-12-01T03:39:21.747Z,98.67
2022-12-01T03:42:28.275Z,96.90
2022-12-01T03:45:36.227Z,95.67
2022-12-01T03:48:40.348Z,98.33
2022-12-01T03:51:50.528Z,98.63
2022-12-01T03:55:01.580Z,102.07
2022-12-01T03:58:07.320Z,101.40
2022-12-01T04:01:10.491Z,103.87
2022-12-01T04:04:15.570Z,104.73
2022-12-01T04:07:19.646Z,102.00
2022-12-01T04:10:22.568Z,100.87
2022-12-01T04:13:24.308Z,104.20
2022-12-01T04:16:27.023Z,102.00
2022-12-01T04:19:29.793Z,108.13
2022-12-01T04:22:34.097Z,102.77
2022-12-01T04:25:36.805Z,104.00
2022-12-01T04:28:39.435Z,102.80
2022-12-01T04:31:42.561Z,92.80
2022-12-01T04:34:45.223Z,112.87
2022-12-01T04:37:49.206Z,103.10
2022-12-01T04:40:51.837Z,105.03
2022-12-01T04:43:54.846Z,103.97
2022-12-01T04:46:57.582Z,97.70
2022-12-01T04:50:00.456Z,99.00
2022-12-01T04:53:05.285Z,97.33
2022-12-01T04:56:08.403Z,99.13
2022-12-01T04:59:11.536Z,97.90
2022-12-01T05:02:14.203Z,96.97
2022-12-01T05:05:17.029Z,98.60
2022-12-01T05:08:20.995Z,99.60
2022-12-01T05:11:24.182Z,100.47
2022-12-01T05:14:26.897Z,99.57
2022-12-01T05:17:36.772Z,100.70
2022-12-01T05:20:58.003Z,106.00
2022-12-01T05:24:01.990Z,101.70
2022-12-01T05:27:04.719Z,103.57
2022-12-01T05:30:08.532Z,104.07
2022-12-01T05:33:11.229Z,103.90
2022-12-01T05:36:13.845Z,109.57
2022-12-01T05:39:18.011Z,106.33
2022-12-01T05:42:20.629Z,99.63
2022-12-01T05:45:23.270Z,105.70
2022-12-01T05:48:26.059Z,105.57
2022-12-01T05:51:28.692Z,107.53
2022-12-01T05:54:32.677Z,101.90
2022-12-01T05:57:35.317Z,104.57
2022-12-01T06:00:45.001Z,105.57
2022-12-01T06:03:48.537Z,113.97
2022-12-01T06:06:51.524Z,111.77
2022-12-01T06:09:55.484Z,108.63
2022-12-01T06:12:58.109Z,106.03
2022-12-01T06:16:02.561Z,122.17
2022-12-01T06:19:05.280Z,113.23
2022-12-01T06:22:07.900Z,106.70
2022-12-01T06:25:12.265Z,110.83
2022-12-01T06:28:15.121Z,111.27
2022-12-01T06:31:17.809Z,109.73
2022-12-01T06:34:20.468Z,118.37
2022-12-01T06:37:23.053Z,109.07
2022-12-01T06:40:27.087Z,110.07
2022-12-01T06:43:30.089Z,118.87
2022-12-01T06:46:32.849Z,115.07
2022-12-01T06:49:35.726Z,108.97
2022-12-01T06:52:38.885Z,118.43
2022-12-01T06:55:42.845Z,111.07
2022-12-01T06:58:45.631Z,116.73
2022-12-01T07:01:48.539Z,114.13
2022-12-01T07:04:51.216Z,118.57
2022-12-01T07:07:59.145Z,113.33
2022-12-01T07:11:05.232Z,115.73
2022-12-01T07:14:07.977Z,112.00
2022-12-01T07:17:10.717Z,116.47
2022-12-01T07:20:13.775Z,113.87
2022-12-01T07:23:16.429Z,110.23
2022-12-01T07:26:20.408Z,119.57
2022-12-01T07:29:23.017Z,116.83
2022-12-01T07:32:25.684Z,120.00
2022-12-01T07:35:28.297Z,117.57
2022-12-01T07:38:31.342Z,123.40
2022-12-01T07:41:35.864Z,120.40
2022-12-01T07:44:38.496Z,119.00
2022-12-01T07:47:41.212Z,119.43
2022-12-01T07:50:43.799Z,119.57
2022-12-01T07:53:47.406Z,124.27
2022-12-01T07:56:51.369Z,126.97
2022-12-01T07:59:53.946Z,119.33
2022-12-01T08:02:56.653Z,111.50
2022-12-01T08:05:59.857Z,113.77
2022-12-01T08:09:02.469Z,124.53
2022-12-01T08:12:07.101Z,126.63
2022-12-01T08:15:10.684Z,128.40
2022-12-01T08:18:13.605Z,120.47
2022-12-01T08:21:18.691Z,119.87
2022-12-01T08:24:21.380Z,122.33
2022-12-01T08:27:25.323Z,128.67
2022-12-01T08:30:28.421Z,130.90
2022-12-01T08:33:31.055Z,122.70
2022-12-01T08:36:34.635Z,133.90
2022-12-01T08:39:37.268Z,129.20
2022-12-01T08:42:41.227Z,117.17
2022-12-01T08:45:43.800Z,110.10
2022-12-01T08:48:46.552Z,107.47
2022-12-01T08:51:49.169Z,111.87
2022-12-01T08:54:51.822Z,100.10
2022-12-01T08:57:55.772Z,105.67
2022-12-01T09:01:07.846Z,98.27
2022-12-01T09:04:10.464Z,84.50
2022-12-01T09:07:15.037Z,91.17
2022-12-01T09:10:17.923Z,85.73
2022-12-01T09:13:21.866Z,89.03
2022-12-01T09:16:24.565Z,90.53
2022-12-01T09:19:28.864Z,86.07
2022-12-01T09:22:31.478Z,88.93
2022-12-01T09:25:34.735Z,91.70
2022-12-01T09:28:39.142Z,78.03
2022-12-01T09:31:42.589Z,79.03
2022-12-01T09:34:45.496Z,81.83
2022-12-01T09:37:48.204Z,75.33
2022-12-01T09:40:51.264Z,75.10
2022-12-01T09:44:00.898Z,74.97
2022-12-01T09:47:10.362Z,76.23
2022-12-01T09:50:18.712Z,86.63
2022-12-01T09:53:23.687Z,141.53
2022-12-01T09:56:28.862Z,162.47
2022-12-01T09:59:37.708Z,159.67
2022-12-01T10:02:43.796Z,149.33
2022-12-01T10:06:18.474Z,139.33
2022-12-01T10:09:23.024Z,130.07
2022-12-01T10:12:28.689Z,108.47
2022-12-01T10:15:41.892Z,109.80
2022-12-01T10:18:54.305Z,103.47
2022-12-01T10:22:13.682Z,107.87
2022-12-01T10:25:22.964Z,94.87
2022-12-01T10:28:51.435Z,111.27
2022-12-01T10:31:58.031Z,95.90
2022-12-01T10:35:00.773Z,95.20
2022-12-01T10:38:07.024Z,83.80
2022-12-01T10:41:15.478Z,83.80
2022-12-01T10:44:19.357Z,78.03
2022-12-01T10:47:25.623Z,82.37
2022-12-01T10:50:29.110Z,78.67
2022-12-01T10:53:34.213Z,77.83
2022-12-01T10:56:40.996Z,71.97
2022-12-01T10:59:51.044Z,76.97
2022-12-01T11:02:55.973Z,74.40
2022-12-01T11:06:00.895Z,74.93
2022-12-01T11:09:06.295Z,75.07
2022-12-01T11:12:16.428Z,78.83
2022-12-01T11:15:22.845Z,74.10
2022-12-01T11:18:33.274Z,77.43
2022-12-01T11:21:35.920Z,63.70
2022-12-01T11:24:43.987Z,80.40
2022-12-01T11:27:52.709Z,72.50
2022-12-01T11:30:59.754Z,82.87
2022-12-01T11:34:04.022Z,76.17
2022-12-01T11:37:10.289Z,79.83
2022-12-01T11:40:20.218Z,88.37
2022-12-01T11:43:27.716Z,84.83
2022-12-01T11:46:34.551Z,82.80
2022-12-01T11:49:47.059Z,90.43
2022-12-01T11:52:50.069Z,86.73
2022-12-01T11:55:52.691Z,82.60
2022-12-01T11:59:00.011Z,84.67
2022-12-01T12:02:22.275Z,77.87
2022-12-01T12:05:49.090Z,76.43
2022-12-01T12:09:14.535Z,86.93
2022-12-01T12:12:33.407Z,91.47
2022-12-01T12:19:10.202Z,88.27
2022-12-01T12:22:27.420Z,80.27
2022-12-01T12:25:42.739Z,80.10
2022-12-01T12:28:59.421Z,79.03
2022-12-01T12:32:15.656Z,75.80
2022-12-01T12:35:29.669Z,71.13
2022-12-01T12:38:49.967Z,82.30
2022-12-01T12:41:55.773Z,76.73
2022-12-01T12:45:06.958Z,66.90
2022-12-01T12:48:23.534Z,75.23
2022-12-01T12:51:32.668Z,72.30
2022-12-01T12:54:44.803Z,60.33
2022-12-01T12:57:53.010Z,66.30
2022-12-01T13:01:00.566Z,68.57
2022-12-01T13:04:08.465Z,65.70
2022-12-01T13:07:22.115Z,60.10
2022-12-01T13:10:33.411Z,61.93
2022-12-01T13:13:42.063Z,62.33
2022-12-01T13:16:48.997Z,57.73
2022-12-01T13:19:51.872Z,58.90
2022-12-01T13:22:55.848Z,63.20
2022-12-01T13:26:02.504Z,57.60
2022-12-01T13:29:08.491Z,59.13
2022-12-01T13:32:28.741Z,51.93
2022-12-01T13:35:33.819Z,49.33
2022-12-01T13:38:37.523Z,56.00
2022-12-01T13:41:44.341Z,54.57
2022-12-01T13:44:53.778Z,52.37
2022-12-01T13:47:57.072Z,51.93
2022-12-01T13:51:02.032Z,51.37
2022-12-01T13:54:06.799Z,59.93
2022-12-01T13:57:26.285Z,54.77
2022-12-01T14:00:30.450Z,52.20
2022-12-01T14:03:42.212Z,55.80
2022-12-01T14:06:49.378Z,58.87
2022-12-01T14:09:54.357Z,55.33
2022-12-01T14:13:03.223Z,55.70
2022-12-01T14:16:06.411Z,56.33
2022-12-01T14:19:28.764Z,60.53
2022-12-01T14:22:34.614Z,57.53
2022-12-01T14:25:37.524Z,47.33
2022-12-01T14:29:11.632Z,54.20
2022-12-01T14:32:24.161Z,48.53
2022-12-01T14:35:26.941Z,52.80
2022-12-01T14:38:30.113Z,58.50
2022-12-01T14:41:40.816Z,50.17
2022-12-01T14:44:48.793Z,52.40
2022-12-01T14:47:58.181Z,52.10
2022-12-01T14:51:13.192Z,48.93
2022-12-01T14:54:22.286Z,49.80
2022-12-01T14:57:30.233Z,55.50
2022-12-01T15:00:37.701Z,55.13
2022-12-01T15:03:43.280Z,52.83
2022-12-01T15:06:45.962Z,54.07
2022-12-01T15:09:59.843Z,49.50
2022-12-01T15:13:13.953Z,53.33
2022-12-01T15:16:20.383Z,55.63
2022-12-01T15:19:24.684Z,57.03
2022-12-01T15:22:31.529Z,70.40
2022-12-01T15:25:36.973Z,61.83
2022-12-01T15:28:40.451Z,58.40
2022-12-01T15:31:45.862Z,56.73
2022-12-01T15:34:53.017Z,60.47
2022-12-01T15:37:56.672Z,67.70
2022-12-01T15:44:29.329Z,65.93
2022-12-01T15:47:36.793Z,71.00
2022-12-01T15:50:46.219Z,68.23
2022-12-01T15:53:53.642Z,81.33
2022-12-01T15:56:58.530Z,74.77
2022-12-01T16:00:01.159Z,79.10
2022-12-01T16:03:05.608Z,78.33
2022-12-01T16:06:13.238Z,81.70
2022-12-01T16:09:22.507Z,86.77
2022-12-01T16:12:27.281Z,80.57
2022-12-01T16:15:30.011Z,91.67
2022-12-01T16:18:35.117Z,94.47
2022-12-01T16:21:46.221Z,90.27
2022-12-01T16:24:52.548Z,96.40
2022-12-01T16:27:57.842Z,92.00
2022-12-01T16:31:00.568Z,93.07
2022-12-01T16:34:18.651Z,87.50
2022-12-01T16:37:28.160Z,99.67
2022-12-01T16:40:31.026Z,103.30
2022-12-01T16:43:33.688Z,103.80
2022-12-01T16:46:36.368Z,103.23
2022-12-01T16:49:40.436Z,104.30
2022-12-01T16:52:44.669Z,111.60
2022-12-01T16:55:51.828Z,108.40
2022-12-01T16:58:54.463Z,113.50
2022-12-01T17:01:57.111Z,106.70
2022-12-01T17:05:01.104Z,110.97
2022-12-01T17:08:03.937Z,114.30
2022-12-01T17:11:07.707Z,107.30
2022-12-01T17:14:10.387Z,103.97
2022-12-01T17:17:13.023Z,118.00
2022-12-01T17:20:17.268Z,115.47
2022-12-01T17:23:19.873Z,114.10
2022-12-01T17:26:23.099Z,115.80
2022-12-01T17:29:26.275Z,100.43
2022-12-01T17:32:29.337Z,96.83
2022-12-01T17:35:33.484Z,91.23
2022-12-01T17:38:37.264Z,88.90
2022-12-01T17:41:42.021Z,77.40
2022-12-01T17:44:44.659Z,80.30
2022-12-01T17:47:47.612Z,73.63
2022-12-01T17:50:51.612Z,68.10
2022-12-01T17:53:54.837Z,67.53
2022-12-01T17:56:57.454Z,75.33
2022-12-01T18:00:01.419Z,68.83
2022-12-01T18:03:04.310Z,70.30
2022-12-01T18:06:09.031Z,74.50
2022-12-01T18:09:11.664Z,155.23
2022-12-01T18:12:14.271Z,87.90
2022-12-01T18:15:17.405Z,73.40
2022-12-01T18:18:20.037Z,71.73
2022-12-01T18:21:25.436Z,71.30
2022-12-01T18:24:28.047Z,79.30
2022-12-01T18:27:30.675Z,76.30
2022-12-01T18:30:34.574Z,81.53
2022-12-01T18:33:38.888Z,69.73
2022-12-01T18:36:43.013Z,75.90
2022-12-01T18:39:46.097Z,71.97
2022-12-01T18:42:50.539Z,66.03
2022-12-01T18:45:53.230Z,68.87
2022-12-01T18:49:00.643Z,82.83
2022-12-01T18:52:04.805Z,71.80
2022-12-01T18:55:07.724Z,83.03
2022-12-01T18:58:10.504Z,80.57
2022-12-01T19:01:21.182Z,82.40
2022-12-01T19:04:23.843Z,78.47
2022-12-01T19:07:30.022Z,75.30
2022-12-01T19:10:33.234Z,83.53
2022-12-01T19:13:36.736Z,76.90
2022-12-01T19:16:40.508Z,82.73
2022-12-01T19:19:43.160Z,76.93
2022-12-01T19:22:47.111Z,78.77
2022-12-01T19:25:49.725Z,79.90
2022-12-01T19:28:52.666Z,72.50
2022-12-01T19:31:55.388Z,77.93
2022-12-01T19:34:58.027Z,74.93
2022-12-01T19:38:01.993Z,76.80
2022-12-01T19:41:05.227Z,83.00
2022-12-01T19:44:08.112Z,75.27
2022-12-01T19:47:10.736Z,75.37
2022-12-01T19:50:13.368Z,85.93
2022-12-01T19:53:17.310Z,73.23
2022-12-01T19:56:20.052Z,71.07
2022-12-01T19:59:22.847Z,73.30
2022-12-01T20:02:29.162Z,65.77
2022-12-01T20:05:32.970Z,57.37
2022-12-01T20:08:37.028Z,63.40
2022-12-01T20:11:39.657Z,60.07
2022-12-01T20:14:42.409Z,63.27
2022-12-01T20:17:45.064Z,65.33
2022-12-01T20:20:48.139Z,57.03
2022-12-01T20:23:57.597Z,65.77
2022-12-01T20:27:00.238Z,58.47
2022-12-01T20:30:02.922Z,60.47
2022-12-01T20:33:05.545Z,66.73
2022-12-01T20:36:09.463Z,59.87
2022-12-01T20:39:15.609Z,53.50
2022-12-01T20:42:19.262Z,58.13
2022-12-01T20:45:21.899Z,51.67
2022-12-01T20:48:24.762Z,60.17
2022-12-01T20:51:27.441Z,52.77
2022-12-01T20:54:31.538Z,55.80
2022-12-01T20:57:34.209Z,59.17
2022-12-01T21:00:38.334Z,54.83
2022-12-01T21:03:42.991Z,56.87
2022-12-01T21:06:45.749Z,51.37
2022-12-01T21:09:49.754Z,53.50
2022-12-01T21:13:16.364Z,61.37
2022-12-01T21:16:23.658Z,51.37
2022-12-01T21:19:31.301Z,53.63
2022-12-01T21:22:34.828Z,59.03
2022-12-01T21:25:40.681Z,54.50
2022-12-01T21:28:44.803Z,55.90
2022-12-01T21:31:49.498Z,63.10
2022-12-01T21:34:52.299Z,55.37
2022-12-01T21:38:00.055Z,61.80
2022-12-01T21:41:09.998Z,66.57
2022-12-01T21:44:16.331Z,61.27
2022-12-01T21:47:22.120Z,69.23
2022-12-01T21:50:27.211Z,73.03
2022-12-01T21:53:37.325Z,72.67
2022-12-01T21:56:41.389Z,69.00
2022-12-01T21:59:43.996Z,66.80
2022-12-01T22:02:49.833Z,70.87
2022-12-01T22:06:27.864Z,67.20
2022-12-01T22:09:25.781Z,64.07
2022-12-01T22:12:30.049Z,60.03
2022-12-01T22:15:40.621Z,71.47
2022-12-01T22:18:46.373Z,62.17
2022-12-01T22:21:50.162Z,63.27
2022-12-01T22:24:54.743Z,65.40
2022-12-01T22:27:59.947Z,69.67
2022-12-01T22:31:03.453Z,81.57
2022-12-01T22:34:15.353Z,76.03
2022-12-01T22:37:21.010Z,80.07
2022-12-01T22:40:33.488Z,75.23
2022-12-01T22:43:46.583Z,90.10
2022-12-01T22:46:49.385Z,87.00
2022-12-01T22:49:52.295Z,88.50
2022-12-01T22:52:57.116Z,94.50
2022-12-01T22:56:01.912Z,90.73
2022-12-01T22:59:16.838Z,93.37
2022-12-01T23:02:22.475Z,88.93
2022-12-01T23:05:27.015Z,83.37
2022-12-01T23:08:29.747Z,90.13
2022-12-01T23:11:32.447Z,93.60
2022-12-01T23:14:39.791Z,98.70
2022-12-01T23:17:42.579Z,92.53
2022-12-01T23:20:48.912Z,101.83
2022-12-01T23:23:51.723Z,100.60
2022-12-01T23:26:54.658Z,85.90
2022-12-01T23:29:58.619Z,90.83
2022-12-01T23:33:17.524Z,88.90
2022-12-01T23:36:25.530Z,86.03
2022-12-01T23:39:33.056Z,87.50
2022-12-01T23:42:36.078Z,88.93
2022-12-01T23:45:40.299Z,88.70
2022-12-01T23:48:45.997Z,93.00
2022-12-01T23:51:51.162Z,91.37
2022-12-01T23:54:53.778Z,81.60
2022-12-01T23:57:56.910Z,78.73
